sensor_id;sensor_type;location;lat;lon;timestamp;P1;durP1;ratioP1;P2;durP2;ratioP2
64885;SDS011;51514;52.206;5.114;2023-07-30T00:02:17;4.30;;;1.80;;
64885;SDS011;51514;52.206;5.114;2023-07-30T00:04:43;5.05;;;2.33;;
64885;SDS011;51514;52.206;5.114;2023-07-30T00:07:10;4.05;;;2.35;;
64885;SDS011;51514;52.206;5.114;2023-07-30T00:09:36;3.97;;;2.13;;
64885;SDS011;51514;52.206;5.114;2023-07-30T00:12:01;4.63;;;2.22;;
64885;SDS011;51514;52.206;5.114;2023-07-30T00:14:27;3.88;;;2.00;;
64885;SDS011;51514;52.206;5.114;2023-07-30T00:16:53;3.95;;;2.03;;
64885;SDS011;51514;52.206;5.114;2023-07-30T00:19:18;4.55;;;2.00;;
64885;SDS011;51514;52.206;5.114;2023-07-30T00:21:44;4.45;;;2.53;;
64885;SDS011;51514;52.206;5.114;2023-07-30T00:24:11;4.90;;;2.30;;
64885;SDS011;51514;52.206;5.114;2023-07-30T00:26:38;5.38;;;1.90;;
64885;SDS011;51514;52.206;5.114;2023-07-30T00:29:03;4.35;;;2.00;;
64885;SDS011;51514;52.206;5.114;2023-07-30T00:31:29;4.45;;;2.15;;
64885;SDS011;51514;52.206;5.114;2023-07-30T00:33:54;6.20;;;2.22;;
64885;SDS011;51514;52.206;5.114;2023-07-30T00:36:19;4.25;;;1.92;;
64885;SDS011;51514;52.206;5.114;2023-07-30T00:38:45;3.60;;;2.00;;
64885;SDS011;51514;52.206;5.114;2023-07-30T00:41:10;4.13;;;1.85;;
64885;SDS011;51514;52.206;5.114;2023-07-30T00:43:35;4.75;;;1.77;;
64885;SDS011;51514;52.206;5.114;2023-07-30T00:46:01;5.60;;;2.20;;
64885;SDS011;51514;52.206;5.114;2023-07-30T00:48:27;3.58;;;1.70;;
64885;SDS011;51514;52.206;5.114;2023-07-30T00:50:53;3.08;;;1.70;;
64885;SDS011;51514;52.206;5.114;2023-07-30T00:53:19;5.40;;;2.50;;
64885;SDS011;51514;52.206;5.114;2023-07-30T00:55:47;3.67;;;1.98;;
64885;SDS011;51514;52.206;5.114;2023-07-30T00:58:13;3.90;;;1.88;;
64885;SDS011;51514;52.206;5.114;2023-07-30T01:00:38;4.43;;;2.10;;
64885;SDS011;51514;52.206;5.114;2023-07-30T01:03:05;6.38;;;2.47;;
64885;SDS011;51514;52.206;5.114;2023-07-30T01:05:30;5.13;;;2.05;;
64885;SDS011;51514;52.206;5.114;2023-07-30T01:07:56;6.22;;;2.35;;
64885;SDS011;51514;52.206;5.114;2023-07-30T01:10:21;5.90;;;2.30;;
64885;SDS011;51514;52.206;5.114;2023-07-30T01:12:47;7.55;;;2.30;;
64885;SDS011;51514;52.206;5.114;2023-07-30T01:15:13;3.92;;;1.83;;
64885;SDS011;51514;52.206;5.114;2023-07-30T01:17:39;4.20;;;2.30;;
64885;SDS011;51514;52.206;5.114;2023-07-30T01:20:05;5.90;;;2.97;;
64885;SDS011;51514;52.206;5.114;2023-07-30T01:22:31;6.50;;;2.10;;
64885;SDS011;51514;52.206;5.114;2023-07-30T01:24:56;8.27;;;2.08;;
64885;SDS011;51514;52.206;5.114;2023-07-30T01:27:28;5.05;;;2.20;;
64885;SDS011;51514;52.206;5.114;2023-07-30T01:30:00;6.05;;;2.08;;
64885;SDS011;51514;52.206;5.114;2023-07-30T01:32:31;4.20;;;2.10;;
64885;SDS011;51514;52.206;5.114;2023-07-30T01:34:57;6.47;;;2.53;;
64885;SDS011;51514;52.206;5.114;2023-07-30T01:37:24;6.22;;;2.63;;
64885;SDS011;51514;52.206;5.114;2023-07-30T01:39:51;4.95;;;2.45;;
64885;SDS011;51514;52.206;5.114;2023-07-30T01:42:17;5.10;;;2.30;;
64885;SDS011;51514;52.206;5.114;2023-07-30T01:44:42;4.15;;;2.25;;
64885;SDS011;51514;52.206;5.114;2023-07-30T01:47:08;6.53;;;2.97;;
64885;SDS011;51514;52.206;5.114;2023-07-30T01:49:34;5.75;;;2.45;;
64885;SDS011;51514;52.206;5.114;2023-07-30T01:51:59;6.13;;;2.60;;
64885;SDS011;51514;52.206;5.114;2023-07-30T01:54:25;3.85;;;2.15;;
64885;SDS011;51514;52.206;5.114;2023-07-30T01:56:50;4.38;;;2.45;;
64885;SDS011;51514;52.206;5.114;2023-07-30T01:59:15;3.75;;;2.35;;
64885;SDS011;51514;52.206;5.114;2023-07-30T02:01:41;5.93;;;2.15;;
64885;SDS011;51514;52.206;5.114;2023-07-30T02:04:07;4.15;;;1.98;;
64885;SDS011;51514;52.206;5.114;2023-07-30T02:06:32;4.57;;;1.85;;
64885;SDS011;51514;52.206;5.114;2023-07-30T02:08:58;5.03;;;1.90;;
64885;SDS011;51514;52.206;5.114;2023-07-30T02:11:23;5.13;;;2.22;;
64885;SDS011;51514;52.206;5.114;2023-07-30T02:13:48;5.90;;;2.38;;
64885;SDS011;51514;52.206;5.114;2023-07-30T02:16:14;5.20;;;2.20;;
64885;SDS011;51514;52.206;5.114;2023-07-30T02:18:39;4.35;;;2.40;;
64885;SDS011;51514;52.206;5.114;2023-07-30T02:21:04;4.22;;;2.10;;
64885;SDS011;51514;52.206;5.114;2023-07-30T02:23:30;4.97;;;2.45;;
64885;SDS011;51514;52.206;5.114;2023-07-30T02:25:55;4.07;;;2.22;;
64885;SDS011;51514;52.206;5.114;2023-07-30T02:28:20;5.57;;;2.00;;
64885;SDS011;51514;52.206;5.114;2023-07-30T02:30:46;5.40;;;2.33;;
64885;SDS011;51514;52.206;5.114;2023-07-30T02:33:11;4.80;;;2.15;;
64885;SDS011;51514;52.206;5.114;2023-07-30T02:35:36;4.82;;;2.10;;
64885;SDS011;51514;52.206;5.114;2023-07-30T02:38:02;4.90;;;2.10;;
64885;SDS011;51514;52.206;5.114;2023-07-30T02:40:28;4.32;;;1.85;;
64885;SDS011;51514;52.206;5.114;2023-07-30T02:42:53;5.00;;;2.05;;
64885;SDS011;51514;52.206;5.114;2023-07-30T02:45:19;5.68;;;2.40;;
64885;SDS011;51514;52.206;5.114;2023-07-30T02:47:44;5.30;;;2.25;;
64885;SDS011;51514;52.206;5.114;2023-07-30T02:50:09;4.95;;;1.80;;
64885;SDS011;51514;52.206;5.114;2023-07-30T02:52:35;2.88;;;1.83;;
64885;SDS011;51514;52.206;5.114;2023-07-30T02:55:00;3.28;;;2.03;;
64885;SDS011;51514;52.206;5.114;2023-07-30T02:57:26;5.60;;;2.75;;
64885;SDS011;51514;52.206;5.114;2023-07-30T02:59:51;8.27;;;2.67;;
64885;SDS011;51514;52.206;5.114;2023-07-30T03:02:16;5.47;;;2.65;;
64885;SDS011;51514;52.206;5.114;2023-07-30T03:04:41;4.82;;;2.28;;
64885;SDS011;51514;52.206;5.114;2023-07-30T03:07:07;8.40;;;2.38;;
64885;SDS011;51514;52.206;5.114;2023-07-30T03:09:34;6.78;;;2.30;;
64885;SDS011;51514;52.206;5.114;2023-07-30T03:11:59;5.75;;;2.20;;
64885;SDS011;51514;52.206;5.114;2023-07-30T03:14:25;5.47;;;2.15;;
64885;SDS011;51514;52.206;5.114;2023-07-30T03:16:51;5.40;;;1.95;;
64885;SDS011;51514;52.206;5.114;2023-07-30T03:19:17;6.00;;;2.33;;
64885;SDS011;51514;52.206;5.114;2023-07-30T03:21:42;4.38;;;1.95;;
64885;SDS011;51514;52.206;5.114;2023-07-30T03:24:08;7.93;;;2.45;;
64885;SDS011;51514;52.206;5.114;2023-07-30T03:26:33;7.15;;;2.47;;
64885;SDS011;51514;52.206;5.114;2023-07-30T03:28:59;4.97;;;2.20;;
64885;SDS011;51514;52.206;5.114;2023-07-30T03:31:24;6.50;;;2.58;;
64885;SDS011;51514;52.206;5.114;2023-07-30T03:33:50;8.98;;;2.47;;
64885;SDS011;51514;52.206;5.114;2023-07-30T03:36:15;5.78;;;2.50;;
64885;SDS011;51514;52.206;5.114;2023-07-30T03:38:41;7.32;;;2.33;;
64885;SDS011;51514;52.206;5.114;2023-07-30T03:41:07;3.70;;;1.95;;
64885;SDS011;51514;52.206;5.114;2023-07-30T03:43:33;5.85;;;2.95;;
64885;SDS011;51514;52.206;5.114;2023-07-30T03:45:59;4.18;;;2.30;;
64885;SDS011;51514;52.206;5.114;2023-07-30T03:48:24;7.40;;;2.15;;
64885;SDS011;51514;52.206;5.114;2023-07-30T03:50:49;4.63;;;2.17;;
64885;SDS011;51514;52.206;5.114;2023-07-30T03:53:15;4.05;;;2.30;;
64885;SDS011;51514;52.206;5.114;2023-07-30T03:55:40;5.20;;;2.20;;
64885;SDS011;51514;52.206;5.114;2023-07-30T03:58:06;8.50;;;2.25;;
64885;SDS011;51514;52.206;5.114;2023-07-30T04:00:31;5.78;;;2.80;;
64885;SDS011;51514;52.206;5.114;2023-07-30T04:02:57;5.95;;;2.55;;
64885;SDS011;51514;52.206;5.114;2023-07-30T04:05:23;5.28;;;2.20;;
64885;SDS011;51514;52.206;5.114;2023-07-30T04:07:48;6.85;;;2.33;;
64885;SDS011;51514;52.206;5.114;2023-07-30T04:10:13;6.68;;;2.70;;
64885;SDS011;51514;52.206;5.114;2023-07-30T04:12:39;8.60;;;2.53;;
64885;SDS011;51514;52.206;5.114;2023-07-30T04:15:04;5.25;;;2.28;;
64885;SDS011;51514;52.206;5.114;2023-07-30T04:17:30;6.38;;;2.58;;
64885;SDS011;51514;52.206;5.114;2023-07-30T04:19:56;4.57;;;2.17;;
64885;SDS011;51514;52.206;5.114;2023-07-30T04:22:21;6.25;;;2.50;;
64885;SDS011;51514;52.206;5.114;2023-07-30T04:24:46;5.68;;;2.70;;
64885;SDS011;51514;52.206;5.114;2023-07-30T04:27:12;8.32;;;2.85;;
64885;SDS011;51514;52.206;5.114;2023-07-30T04:29:37;6.20;;;2.50;;
64885;SDS011;51514;52.206;5.114;2023-07-30T04:32:03;6.28;;;2.90;;
64885;SDS011;51514;52.206;5.114;2023-07-30T04:34:28;4.68;;;2.50;;
64885;SDS011;51514;52.206;5.114;2023-07-30T04:36:53;5.75;;;2.13;;
64885;SDS011;51514;52.206;5.114;2023-07-30T04:39:19;6.15;;;3.00;;
64885;SDS011;51514;52.206;5.114;2023-07-30T04:41:44;5.10;;;2.55;;
64885;SDS011;51514;52.206;5.114;2023-07-30T04:44:09;10.43;;;2.83;;
64885;SDS011;51514;52.206;5.114;2023-07-30T04:46:35;7.00;;;2.13;;
64885;SDS011;51514;52.206;5.114;2023-07-30T04:49:03;6.97;;;2.75;;
64885;SDS011;51514;52.206;5.114;2023-07-30T04:51:29;8.20;;;3.45;;
64885;SDS011;51514;52.206;5.114;2023-07-30T04:53:54;6.38;;;3.47;;
64885;SDS011;51514;52.206;5.114;2023-07-30T04:56:20;8.07;;;2.80;;
64885;SDS011;51514;52.206;5.114;2023-07-30T04:58:45;8.23;;;2.70;;
64885;SDS011;51514;52.206;5.114;2023-07-30T05:01:10;6.38;;;2.55;;
64885;SDS011;51514;52.206;5.114;2023-07-30T05:03:36;7.50;;;2.53;;
64885;SDS011;51514;52.206;5.114;2023-07-30T05:06:01;6.70;;;2.22;;
64885;SDS011;51514;52.206;5.114;2023-07-30T05:08:26;5.80;;;2.65;;
64885;SDS011;51514;52.206;5.114;2023-07-30T05:10:52;6.45;;;2.72;;
64885;SDS011;51514;52.206;5.114;2023-07-30T05:13:17;9.35;;;3.38;;
64885;SDS011;51514;52.206;5.114;2023-07-30T05:15:42;7.15;;;2.85;;
64885;SDS011;51514;52.206;5.114;2023-07-30T05:18:08;7.47;;;2.45;;
64885;SDS011;51514;52.206;5.114;2023-07-30T05:20:33;7.63;;;2.50;;
64885;SDS011;51514;52.206;5.114;2023-07-30T05:22:59;5.82;;;2.30;;
64885;SDS011;51514;52.206;5.114;2023-07-30T05:25:24;7.78;;;2.20;;
64885;SDS011;51514;52.206;5.114;2023-07-30T05:27:49;7.93;;;2.83;;
64885;SDS011;51514;52.206;5.114;2023-07-30T05:30:15;7.75;;;2.70;;
64885;SDS011;51514;52.206;5.114;2023-07-30T05:32:40;5.97;;;2.25;;
64885;SDS011;51514;52.206;5.114;2023-07-30T05:35:05;6.03;;;2.58;;
64885;SDS011;51514;52.206;5.114;2023-07-30T05:37:31;8.55;;;2.45;;
64885;SDS011;51514;52.206;5.114;2023-07-30T05:39:56;9.00;;;3.00;;
64885;SDS011;51514;52.206;5.114;2023-07-30T05:42:22;8.35;;;2.60;;
64885;SDS011;51514;52.206;5.114;2023-07-30T05:44:47;10.07;;;3.17;;
64885;SDS011;51514;52.206;5.114;2023-07-30T05:47:13;12.65;;;3.08;;
64885;SDS011;51514;52.206;5.114;2023-07-30T05:49:38;10.73;;;2.92;;
64885;SDS011;51514;52.206;5.114;2023-07-30T05:52:04;8.55;;;2.70;;
64885;SDS011;51514;52.206;5.114;2023-07-30T05:54:30;8.85;;;3.20;;
64885;SDS011;51514;52.206;5.114;2023-07-30T05:56:55;9.27;;;3.03;;
64885;SDS011;51514;52.206;5.114;2023-07-30T05:59:20;10.68;;;3.00;;
64885;SDS011;51514;52.206;5.114;2023-07-30T06:01:46;9.40;;;3.00;;
64885;SDS011;51514;52.206;5.114;2023-07-30T06:04:11;11.00;;;3.13;;
64885;SDS011;51514;52.206;5.114;2023-07-30T06:06:36;14.13;;;4.30;;
64885;SDS011;51514;52.206;5.114;2023-07-30T06:09:02;11.40;;;3.63;;
64885;SDS011;51514;52.206;5.114;2023-07-30T06:11:27;11.77;;;3.47;;
64885;SDS011;51514;52.206;5.114;2023-07-30T06:13:53;11.57;;;3.10;;
64885;SDS011;51514;52.206;5.114;2023-07-30T06:16:19;11.02;;;3.53;;
64885;SDS011;51514;52.206;5.114;2023-07-30T06:18:45;10.48;;;3.17;;
64885;SDS011;51514;52.206;5.114;2023-07-30T06:21:11;9.77;;;3.15;;
64885;SDS011;51514;52.206;5.114;2023-07-30T06:23:36;9.50;;;3.28;;
64885;SDS011;51514;52.206;5.114;2023-07-30T06:26:01;7.35;;;2.83;;
64885;SDS011;51514;52.206;5.114;2023-07-30T06:28:27;9.05;;;2.85;;
64885;SDS011;51514;52.206;5.114;2023-07-30T06:30:52;7.78;;;2.63;;
64885;SDS011;51514;52.206;5.114;2023-07-30T06:33:17;9.27;;;3.67;;
64885;SDS011;51514;52.206;5.114;2023-07-30T06:35:42;10.82;;;3.13;;
64885;SDS011;51514;52.206;5.114;2023-07-30T06:38:08;10.68;;;3.60;;
64885;SDS011;51514;52.206;5.114;2023-07-30T06:40:33;13.15;;;3.60;;
64885;SDS011;51514;52.206;5.114;2023-07-30T06:42:59;11.43;;;3.95;;
64885;SDS011;51514;52.206;5.114;2023-07-30T06:45:25;10.40;;;3.38;;
64885;SDS011;51514;52.206;5.114;2023-07-30T06:47:50;8.52;;;3.25;;
64885;SDS011;51514;52.206;5.114;2023-07-30T06:50:15;11.05;;;3.63;;
64885;SDS011;51514;52.206;5.114;2023-07-30T06:52:41;12.27;;;3.33;;
64885;SDS011;51514;52.206;5.114;2023-07-30T06:55:06;12.00;;;3.45;;
64885;SDS011;51514;52.206;5.114;2023-07-30T06:57:32;10.80;;;3.17;;
64885;SDS011;51514;52.206;5.114;2023-07-30T06:59:57;14.98;;;3.97;;
64885;SDS011;51514;52.206;5.114;2023-07-30T07:02:23;12.95;;;3.72;;
64885;SDS011;51514;52.206;5.114;2023-07-30T07:04:49;11.75;;;3.95;;
64885;SDS011;51514;52.206;5.114;2023-07-30T07:07:15;9.27;;;3.25;;
64885;SDS011;51514;52.206;5.114;2023-07-30T07:09:40;14.40;;;3.33;;
64885;SDS011;51514;52.206;5.114;2023-07-30T07:12:06;11.38;;;3.72;;
64885;SDS011;51514;52.206;5.114;2023-07-30T07:14:31;10.48;;;3.90;;
64885;SDS011;51514;52.206;5.114;2023-07-30T07:16:57;9.07;;;3.55;;
64885;SDS011;51514;52.206;5.114;2023-07-30T07:19:22;8.15;;;3.17;;
64885;SDS011;51514;52.206;5.114;2023-07-30T07:21:48;13.35;;;3.67;;
64885;SDS011;51514;52.206;5.114;2023-07-30T07:24:13;10.68;;;3.90;;
64885;SDS011;51514;52.206;5.114;2023-07-30T07:26:39;10.25;;;3.63;;
64885;SDS011;51514;52.206;5.114;2023-07-30T07:29:04;10.20;;;3.53;;
64885;SDS011;51514;52.206;5.114;2023-07-30T07:31:29;9.02;;;3.42;;
64885;SDS011;51514;52.206;5.114;2023-07-30T07:33:55;7.35;;;2.92;;
64885;SDS011;51514;52.206;5.114;2023-07-30T07:36:20;11.15;;;3.65;;
64885;SDS011;51514;52.206;5.114;2023-07-30T07:38:46;13.38;;;3.22;;
64885;SDS011;51514;52.206;5.114;2023-07-30T07:41:14;9.10;;;3.08;;
64885;SDS011;51514;52.206;5.114;2023-07-30T07:43:41;11.43;;;3.85;;
64885;SDS011;51514;52.206;5.114;2023-07-30T07:46:07;7.90;;;3.40;;
64885;SDS011;51514;52.206;5.114;2023-07-30T07:48:38;8.52;;;2.90;;
64885;SDS011;51514;52.206;5.114;2023-07-30T07:51:04;9.30;;;3.25;;
64885;SDS011;51514;52.206;5.114;2023-07-30T07:53:29;7.38;;;3.33;;
64885;SDS011;51514;52.206;5.114;2023-07-30T07:55:55;8.30;;;3.13;;
64885;SDS011;51514;52.206;5.114;2023-07-30T07:58:20;11.98;;;3.78;;
64885;SDS011;51514;52.206;5.114;2023-07-30T08:00:45;11.35;;;3.75;;
64885;SDS011;51514;52.206;5.114;2023-07-30T08:03:11;10.90;;;3.58;;
64885;SDS011;51514;52.206;5.114;2023-07-30T08:05:36;8.15;;;2.95;;
64885;SDS011;51514;52.206;5.114;2023-07-30T08:08:02;8.38;;;3.60;;
64885;SDS011;51514;52.206;5.114;2023-07-30T08:10:27;9.13;;;3.13;;
64885;SDS011;51514;52.206;5.114;2023-07-30T08:12:52;8.57;;;2.78;;
64885;SDS011;51514;52.206;5.114;2023-07-30T08:15:18;12.43;;;3.22;;
64885;SDS011;51514;52.206;5.114;2023-07-30T08:17:43;7.60;;;3.28;;
64885;SDS011;51514;52.206;5.114;2023-07-30T08:20:09;8.45;;;3.22;;
64885;SDS011;51514;52.206;5.114;2023-07-30T08:22:34;8.25;;;3.25;;
64885;SDS011;51514;52.206;5.114;2023-07-30T08:25:00;9.80;;;3.53;;
64885;SDS011;51514;52.206;5.114;2023-07-30T08:27:25;8.88;;;3.30;;
64885;SDS011;51514;52.206;5.114;2023-07-30T08:29:50;9.25;;;3.35;;
64885;SDS011;51514;52.206;5.114;2023-07-30T08:32:16;9.77;;;3.03;;
64885;SDS011;51514;52.206;5.114;2023-07-30T08:34:41;9.52;;;3.45;;
64885;SDS011;51514;52.206;5.114;2023-07-30T08:37:06;7.45;;;2.95;;
64885;SDS011;51514;52.206;5.114;2023-07-30T08:39:32;9.15;;;3.03;;
64885;SDS011;51514;52.206;5.114;2023-07-30T08:41:57;8.65;;;2.85;;
64885;SDS011;51514;52.206;5.114;2023-07-30T08:44:23;5.95;;;2.65;;
64885;SDS011;51514;52.206;5.114;2023-07-30T08:46:48;9.23;;;3.15;;
64885;SDS011;51514;52.206;5.114;2023-07-30T08:49:14;10.75;;;2.88;;
64885;SDS011;51514;52.206;5.114;2023-07-30T08:51:39;7.05;;;2.58;;
64885;SDS011;51514;52.206;5.114;2023-07-30T08:54:07;5.78;;;2.53;;
64885;SDS011;51514;52.206;5.114;2023-07-30T08:56:34;7.75;;;2.95;;
64885;SDS011;51514;52.206;5.114;2023-07-30T08:59:00;8.43;;;2.97;;
64885;SDS011;51514;52.206;5.114;2023-07-30T09:01:30;6.43;;;2.67;;
64885;SDS011;51514;52.206;5.114;2023-07-30T09:03:59;9.43;;;3.45;;
64885;SDS011;51514;52.206;5.114;2023-07-30T09:06:25;9.13;;;4.00;;
64885;SDS011;51514;52.206;5.114;2023-07-30T09:08:51;6.88;;;2.75;;
64885;SDS011;51514;52.206;5.114;2023-07-30T09:11:16;7.78;;;3.08;;
64885;SDS011;51514;52.206;5.114;2023-07-30T09:13:42;7.22;;;3.05;;
64885;SDS011;51514;52.206;5.114;2023-07-30T09:16:10;6.13;;;2.60;;
64885;SDS011;51514;52.206;5.114;2023-07-30T09:18:40;5.93;;;2.50;;
64885;SDS011;51514;52.206;5.114;2023-07-30T09:21:07;7.82;;;3.03;;
64885;SDS011;51514;52.206;5.114;2023-07-30T09:23:33;8.40;;;2.67;;
64885;SDS011;51514;52.206;5.114;2023-07-30T09:26:05;10.57;;;3.28;;
64885;SDS011;51514;52.206;5.114;2023-07-30T09:28:30;8.77;;;3.10;;
64885;SDS011;51514;52.206;5.114;2023-07-30T09:31:03;6.95;;;2.67;;
64885;SDS011;51514;52.206;5.114;2023-07-30T09:33:30;7.72;;;2.47;;
64885;SDS011;51514;52.206;5.114;2023-07-30T09:35:56;6.13;;;2.67;;
64885;SDS011;51514;52.206;5.114;2023-07-30T09:38:21;9.15;;;2.78;;
64885;SDS011;51514;52.206;5.114;2023-07-30T09:40:47;8.23;;;2.38;;
64885;SDS011;51514;52.206;5.114;2023-07-30T09:43:14;7.88;;;2.63;;
64885;SDS011;51514;52.206;5.114;2023-07-30T09:45:40;6.53;;;2.38;;
64885;SDS011;51514;52.206;5.114;2023-07-30T09:48:05;6.68;;;2.35;;
64885;SDS011;51514;52.206;5.114;2023-07-30T09:50:31;8.20;;;2.58;;
64885;SDS011;51514;52.206;5.114;2023-07-30T09:52:58;6.53;;;2.70;;
64885;SDS011;51514;52.206;5.114;2023-07-30T09:55:25;6.30;;;2.30;;
64885;SDS011;51514;52.206;5.114;2023-07-30T09:57:51;6.45;;;2.90;;
64885;SDS011;51514;52.206;5.114;2023-07-30T10:00:17;6.68;;;2.60;;
64885;SDS011;51514;52.206;5.114;2023-07-30T10:02:45;6.68;;;2.78;;
64885;SDS011;51514;52.206;5.114;2023-07-30T10:05:12;6.95;;;2.63;;
64885;SDS011;51514;52.206;5.114;2023-07-30T10:07:50;6.15;;;2.60;;
64885;SDS011;51514;52.206;5.114;2023-07-30T10:10:19;7.25;;;2.42;;
64885;SDS011;51514;52.206;5.114;2023-07-30T10:12:46;6.25;;;2.53;;
64885;SDS011;51514;52.206;5.114;2023-07-30T10:15:17;6.45;;;2.28;;
64885;SDS011;51514;52.206;5.114;2023-07-30T10:17:44;6.43;;;2.58;;
64885;SDS011;51514;52.206;5.114;2023-07-30T10:20:23;5.50;;;2.25;;
64885;SDS011;51514;52.206;5.114;2023-07-30T10:22:53;8.60;;;2.53;;
64885;SDS011;51514;52.206;5.114;2023-07-30T10:25:21;3.90;;;2.13;;
64885;SDS011;51514;52.206;5.114;2023-07-30T10:27:49;5.80;;;2.17;;
64885;SDS011;51514;52.206;5.114;2023-07-30T10:30:16;6.70;;;2.28;;
64885;SDS011;51514;52.206;5.114;2023-07-30T10:38:17;5.35;;;2.15;;
64885;SDS011;51514;52.206;5.114;2023-07-30T10:43:41;7.15;;;2.30;;
64885;SDS011;51514;52.206;5.114;2023-07-30T10:46:14;11.32;;;2.95;;
64885;SDS011;51514;52.206;5.114;2023-07-30T10:48:42;7.28;;;2.50;;
64885;SDS011;51514;52.206;5.114;2023-07-30T10:51:11;8.07;;;2.00;;
64885;SDS011;51514;52.206;5.114;2023-07-30T10:53:38;7.78;;;2.25;;
64885;SDS011;51514;52.206;5.114;2023-07-30T10:56:04;8.10;;;2.88;;
64885;SDS011;51514;52.206;5.114;2023-07-30T10:58:31;8.57;;;2.30;;
64885;SDS011;51514;52.206;5.114;2023-07-30T11:00:58;9.73;;;2.75;;
64885;SDS011;51514;52.206;5.114;2023-07-30T11:03:24;6.28;;;2.10;;
64885;SDS011;51514;52.206;5.114;2023-07-30T11:05:51;9.27;;;2.17;;
64885;SDS011;51514;52.206;5.114;2023-07-30T11:08:17;7.47;;;2.00;;
64885;SDS011;51514;52.206;5.114;2023-07-30T11:10:45;7.22;;;2.20;;
64885;SDS011;51514;52.206;5.114;2023-07-30T11:13:14;7.13;;;2.25;;
64885;SDS011;51514;52.206;5.114;2023-07-30T11:15:40;4.72;;;1.83;;
64885;SDS011;51514;52.206;5.114;2023-07-30T11:18:07;6.82;;;2.13;;
64885;SDS011;51514;52.206;5.114;2023-07-30T11:20:33;6.78;;;2.30;;
64885;SDS011;51514;52.206;5.114;2023-07-30T11:22:59;6.32;;;1.95;;
64885;SDS011;51514;52.206;5.114;2023-07-30T11:25:24;7.03;;;2.17;;
64885;SDS011;51514;52.206;5.114;2023-07-30T11:27:50;6.97;;;2.20;;
64885;SDS011;51514;52.206;5.114;2023-07-30T11:30:16;6.43;;;2.28;;
64885;SDS011;51514;52.206;5.114;2023-07-30T11:32:43;5.00;;;1.90;;
64885;SDS011;51514;52.206;5.114;2023-07-30T11:35:09;4.75;;;1.77;;
64885;SDS011;51514;52.206;5.114;2023-07-30T11:37:36;4.63;;;2.08;;
64885;SDS011;51514;52.206;5.114;2023-07-30T11:40:06;4.68;;;1.73;;
64885;SDS011;51514;52.206;5.114;2023-07-30T11:42:35;5.13;;;1.50;;
64885;SDS011;51514;52.206;5.114;2023-07-30T11:45:17;5.05;;;1.65;;
64885;SDS011;51514;52.206;5.114;2023-07-30T11:47:44;5.40;;;2.00;;
64885;SDS011;51514;52.206;5.114;2023-07-30T11:50:09;4.15;;;1.80;;
64885;SDS011;51514;52.206;5.114;2023-07-30T11:52:34;5.70;;;2.28;;
64885;SDS011;51514;52.206;5.114;2023-07-30T11:55:00;5.32;;;1.35;;
64885;SDS011;51514;52.206;5.114;2023-07-30T12:00:01;6.05;;;1.83;;
64885;SDS011;51514;52.206;5.114;2023-07-30T12:02:28;5.63;;;1.70;;
64885;SDS011;51514;52.206;5.114;2023-07-30T12:04:54;5.45;;;1.45;;
64885;SDS011;51514;52.206;5.114;2023-07-30T12:07:25;3.47;;;1.38;;
64885;SDS011;51514;52.206;5.114;2023-07-30T12:09:51;4.82;;;1.52;;
64885;SDS011;51514;52.206;5.114;2023-07-30T12:12:16;4.00;;;1.45;;
64885;SDS011;51514;52.206;5.114;2023-07-30T12:14:42;6.47;;;1.90;;
64885;SDS011;51514;52.206;5.114;2023-07-30T12:17:08;4.65;;;1.58;;
64885;SDS011;51514;52.206;5.114;2023-07-30T12:19:34;5.82;;;1.55;;
64885;SDS011;51514;52.206;5.114;2023-07-30T12:22:01;4.95;;;1.70;;
64885;SDS011;51514;52.206;5.114;2023-07-30T12:24:27;4.25;;;1.55;;
64885;SDS011;51514;52.206;5.114;2023-07-30T12:26:52;4.13;;;1.70;;
64885;SDS011;51514;52.206;5.114;2023-07-30T12:29:18;5.57;;;1.45;;
64885;SDS011;51514;52.206;5.114;2023-07-30T12:31:43;6.28;;;1.90;;
64885;SDS011;51514;52.206;5.114;2023-07-30T12:34:10;3.95;;;1.98;;
64885;SDS011;51514;52.206;5.114;2023-07-30T12:36:36;4.65;;;2.13;;
64885;SDS011;51514;52.206;5.114;2023-07-30T12:39:01;5.60;;;1.67;;
64885;SDS011;51514;52.206;5.114;2023-07-30T12:41:27;4.70;;;2.25;;
64885;SDS011;51514;52.206;5.114;2023-07-30T12:43:53;4.55;;;1.73;;
64885;SDS011;51514;52.206;5.114;2023-07-30T12:46:19;5.93;;;1.77;;
64885;SDS011;51514;52.206;5.114;2023-07-30T12:48:45;4.90;;;1.65;;
64885;SDS011;51514;52.206;5.114;2023-07-30T12:51:10;5.20;;;1.65;;
64885;SDS011;51514;52.206;5.114;2023-07-30T12:53:36;4.53;;;1.70;;
64885;SDS011;51514;52.206;5.114;2023-07-30T12:56:01;4.13;;;1.70;;
64885;SDS011;51514;52.206;5.114;2023-07-30T12:58:27;4.13;;;1.95;;
64885;SDS011;51514;52.206;5.114;2023-07-30T13:00:52;3.97;;;1.70;;
64885;SDS011;51514;52.206;5.114;2023-07-30T13:03:17;7.03;;;1.75;;
64885;SDS011;51514;52.206;5.114;2023-07-30T13:05:43;3.85;;;1.67;;
64885;SDS011;51514;52.206;5.114;2023-07-30T13:08:08;3.25;;;1.48;;
64885;SDS011;51514;52.206;5.114;2023-07-30T13:10:34;2.90;;;1.30;;
64885;SDS011;51514;52.206;5.114;2023-07-30T13:13:00;4.40;;;1.52;;
64885;SDS011;51514;52.206;5.114;2023-07-30T13:15:25;4.18;;;1.75;;
64885;SDS011;51514;52.206;5.114;2023-07-30T13:17:50;5.53;;;1.75;;
64885;SDS011;51514;52.206;5.114;2023-07-30T13:20:16;6.88;;;2.22;;
64885;SDS011;51514;52.206;5.114;2023-07-30T13:22:41;4.55;;;2.20;;
64885;SDS011;51514;52.206;5.114;2023-07-30T13:25:06;5.63;;;1.55;;
64885;SDS011;51514;52.206;5.114;2023-07-30T13:27:32;4.05;;;1.55;;
64885;SDS011;51514;52.206;5.114;2023-07-30T13:29:57;3.83;;;1.58;;
64885;SDS011;51514;52.206;5.114;2023-07-30T13:32:23;5.18;;;1.90;;
64885;SDS011;51514;52.206;5.114;2023-07-30T13:34:48;4.78;;;1.83;;
64885;SDS011;51514;52.206;5.114;2023-07-30T13:37:13;5.65;;;2.40;;
64885;SDS011;51514;52.206;5.114;2023-07-30T13:39:39;8.20;;;2.35;;
64885;SDS011;51514;52.206;5.114;2023-07-30T13:42:05;8.00;;;2.88;;
64885;SDS011;51514;52.206;5.114;2023-07-30T13:44:30;10.27;;;2.90;;
64885;SDS011;51514;52.206;5.114;2023-07-30T13:46:55;6.10;;;2.22;;
64885;SDS011;51514;52.206;5.114;2023-07-30T13:49:21;8.43;;;2.67;;
64885;SDS011;51514;52.206;5.114;2023-07-30T13:51:46;6.78;;;2.47;;
64885;SDS011;51514;52.206;5.114;2023-07-30T13:54:11;7.20;;;3.17;;
64885;SDS011;51514;52.206;5.114;2023-07-30T13:56:37;8.60;;;3.00;;
64885;SDS011;51514;52.206;5.114;2023-07-30T13:59:03;6.68;;;2.80;;
64885;SDS011;51514;52.206;5.114;2023-07-30T14:01:29;6.30;;;2.70;;
64885;SDS011;51514;52.206;5.114;2023-07-30T14:03:54;8.30;;;3.15;;
64885;SDS011;51514;52.206;5.114;2023-07-30T14:06:20;8.88;;;3.22;;
64885;SDS011;51514;52.206;5.114;2023-07-30T14:08:45;4.38;;;2.10;;
64885;SDS011;51514;52.206;5.114;2023-07-30T14:11:11;10.43;;;3.20;;
64885;SDS011;51514;52.206;5.114;2023-07-30T14:13:36;10.20;;;3.67;;
64885;SDS011;51514;52.206;5.114;2023-07-30T14:16:01;7.78;;;2.72;;
64885;SDS011;51514;52.206;5.114;2023-07-30T14:18:27;10.35;;;2.70;;
64885;SDS011;51514;52.206;5.114;2023-07-30T14:20:52;8.15;;;2.58;;
64885;SDS011;51514;52.206;5.114;2023-07-30T14:23:18;9.30;;;3.08;;
64885;SDS011;51514;52.206;5.114;2023-07-30T14:25:43;8.25;;;2.97;;
64885;SDS011;51514;52.206;5.114;2023-07-30T14:28:09;6.30;;;3.10;;
64885;SDS011;51514;52.206;5.114;2023-07-30T14:30:34;7.78;;;2.97;;
64885;SDS011;51514;52.206;5.114;2023-07-30T14:33:08;9.02;;;3.10;;
64885;SDS011;51514;52.206;5.114;2023-07-30T14:35:34;7.97;;;3.00;;
64885;SDS011;51514;52.206;5.114;2023-07-30T14:38:01;8.32;;;3.03;;
64885;SDS011;51514;52.206;5.114;2023-07-30T14:40:26;5.15;;;2.67;;
64885;SDS011;51514;52.206;5.114;2023-07-30T14:42:51;6.82;;;2.80;;
64885;SDS011;51514;52.206;5.114;2023-07-30T14:45:17;6.55;;;2.75;;
64885;SDS011;51514;52.206;5.114;2023-07-30T14:47:42;7.00;;;3.25;;
64885;SDS011;51514;52.206;5.114;2023-07-30T14:50:08;6.15;;;2.63;;